sensor_id;sensor_type;location;lat;lon;timestamp;temperature;humidity
63371;DHT22;49504;48.336;14.472;2023-05-27T00:00:58;25.30;52.00
63371;DHT22;49504;48.336;14.472;2023-05-27T00:05:25;25.30;51.70
63371;DHT22;49504;48.336;14.472;2023-05-27T00:09:12;25.30;51.60
63371;DHT22;49504;48.336;14.472;2023-05-27T00:12:33;25.40;52.10
63371;DHT22;49504;48.336;14.472;2023-05-27T00:15:54;25.30;52.00
63371;DHT22;49504;48.336;14.472;2023-05-27T00:19:15;25.40;52.10
63371;DHT22;49504;48.336;14.472;2023-05-27T00:22:36;25.30;52.00
63371;DHT22;49504;48.336;14.472;2023-05-27T00:25:59;25.30;52.10
63371;DHT22;49504;48.336;14.472;2023-05-27T00:29:20;25.30;52.00
63371;DHT22;49504;48.336;14.472;2023-05-27T00:32:41;25.30;52.00
63371;DHT22;49504;48.336;14.472;2023-05-27T00:36:03;25.30;52.00
63371;DHT22;49504;48.336;14.472;2023-05-27T00:39:24;25.30;51.90
63371;DHT22;49504;48.336;14.472;2023-05-27T00:42:47;25.40;52.00
63371;DHT22;49504;48.336;14.472;2023-05-27T00:46:08;25.30;51.80
63371;DHT22;49504;48.336;14.472;2023-05-27T00:51:43;25.30;51.50
63371;DHT22;49504;48.336;14.472;2023-05-27T00:55:06;25.30;51.70
63371;DHT22;49504;48.336;14.472;2023-05-27T00:58:28;25.30;51.60
63371;DHT22;49504;48.336;14.472;2023-05-27T01:01:49;25.30;51.60
63371;DHT22;49504;48.336;14.472;2023-05-27T01:05:12;25.30;51.60
63371;DHT22;49504;48.336;14.472;2023-05-27T01:08:42;25.30;51.60
63371;DHT22;49504;48.336;14.472;2023-05-27T01:12:14;25.30;51.60
63371;DHT22;49504;48.336;14.472;2023-05-27T01:15:39;25.30;51.50
63371;DHT22;49504;48.336;14.472;2023-05-27T01:19:01;25.30;51.50
63371;DHT22;49504;48.336;14.472;2023-05-27T01:22:29;25.30;51.40
63371;DHT22;49504;48.336;14.472;2023-05-27T01:25:50;25.30;51.40
63371;DHT22;49504;48.336;14.472;2023-05-27T01:29:12;25.30;51.40
63371;DHT22;49504;48.336;14.472;2023-05-27T01:32:56;25.30;51.30
63371;DHT22;49504;48.336;14.472;2023-05-27T01:36:26;25.30;51.40
63371;DHT22;49504;48.336;14.472;2023-05-27T01:39:50;25.20;51.10
63371;DHT22;49504;48.336;14.472;2023-05-27T01:43:13;25.30;51.00
63371;DHT22;49504;48.336;14.472;2023-05-27T01:46:34;25.30;50.90
63371;DHT22;49504;48.336;14.472;2023-05-27T01:49:56;25.20;50.90
63371;DHT22;49504;48.336;14.472;2023-05-27T01:53:17;25.30;51.00
63371;DHT22;49504;48.336;14.472;2023-05-27T01:56:40;25.30;51.00
63371;DHT22;49504;48.336;14.472;2023-05-27T02:00:02;25.30;51.00
63371;DHT22;49504;48.336;14.472;2023-05-27T02:03:23;25.30;51.00
63371;DHT22;49504;48.336;14.472;2023-05-27T02:06:45;25.20;50.90
63371;DHT22;49504;48.336;14.472;2023-05-27T02:10:07;25.30;50.90
63371;DHT22;49504;48.336;14.472;2023-05-27T02:13:30;25.30;50.90
63371;DHT22;49504;48.336;14.472;2023-05-27T02:16:51;25.20;50.90
63371;DHT22;49504;48.336;14.472;2023-05-27T02:20:13;25.20;50.80
63371;DHT22;49504;48.336;14.472;2023-05-27T02:23:34;25.20;50.80
63371;DHT22;49504;48.336;14.472;2023-05-27T02:26:55;25.20;50.80
63371;DHT22;49504;48.336;14.472;2023-05-27T02:30:17;25.30;50.80
63371;DHT22;49504;48.336;14.472;2023-05-27T02:33:39;25.20;50.80
63371;DHT22;49504;48.336;14.472;2023-05-27T02:37:00;25.20;50.70
63371;DHT22;49504;48.336;14.472;2023-05-27T02:40:25;25.20;50.80
63371;DHT22;49504;48.336;14.472;2023-05-27T02:43:49;25.20;50.70
63371;DHT22;49504;48.336;14.472;2023-05-27T02:47:11;25.20;50.70
63371;DHT22;49504;48.336;14.472;2023-05-27T02:50:33;25.20;50.70
63371;DHT22;49504;48.336;14.472;2023-05-27T02:55:38;25.20;50.50
63371;DHT22;49504;48.336;14.472;2023-05-27T02:58:59;25.20;50.80
63371;DHT22;49504;48.336;14.472;2023-05-27T03:02:21;25.20;50.70
63371;DHT22;49504;48.336;14.472;2023-05-27T03:05:42;25.20;50.70
63371;DHT22;49504;48.336;14.472;2023-05-27T03:09:03;25.20;50.70
63371;DHT22;49504;48.336;14.472;2023-05-27T03:12:26;25.20;50.70
63371;DHT22;49504;48.336;14.472;2023-05-27T03:15:47;25.20;50.70
63371;DHT22;49504;48.336;14.472;2023-05-27T03:19:08;25.20;50.70
63371;DHT22;49504;48.336;14.472;2023-05-27T03:22:29;25.20;50.60
63371;DHT22;49504;48.336;14.472;2023-05-27T03:25:51;25.20;50.60
63371;DHT22;49504;48.336;14.472;2023-05-27T03:29:14;25.20;50.50
63371;DHT22;49504;48.336;14.472;2023-05-27T03:32:35;25.20;50.60
63371;DHT22;49504;48.336;14.472;2023-05-27T03:35:57;25.20;50.50
63371;DHT22;49504;48.336;14.472;2023-05-27T03:39:18;25.20;50.50
63371;DHT22;49504;48.336;14.472;2023-05-27T03:42:47;25.20;50.50
63371;DHT22;49504;48.336;14.472;2023-05-27T03:46:14;25.20;50.50
63371;DHT22;49504;48.336;14.472;2023-05-27T03:50:24;25.20;50.10
63371;DHT22;49504;48.336;14.472;2023-05-27T03:53:45;25.20;50.40
63371;DHT22;49504;48.336;14.472;2023-05-27T03:57:06;25.20;50.40
63371;DHT22;49504;48.336;14.472;2023-05-27T04:00:28;25.20;50.70
63371;DHT22;49504;48.336;14.472;2023-05-27T04:03:49;25.20;50.60
63371;DHT22;49504;48.336;14.472;2023-05-27T04:07:11;25.20;50.60
63371;DHT22;49504;48.336;14.472;2023-05-27T04:10:32;25.20;50.50
63371;DHT22;49504;48.336;14.472;2023-05-27T04:13:54;25.20;50.70
63371;DHT22;49504;48.336;14.472;2023-05-27T04:17:15;25.20;50.60
63371;DHT22;49504;48.336;14.472;2023-05-27T04:20:37;25.20;50.70
63371;DHT22;49504;48.336;14.472;2023-05-27T04:24:01;25.20;50.70
63371;DHT22;49504;48.336;14.472;2023-05-27T04:27:23;25.20;50.50
63371;DHT22;49504;48.336;14.472;2023-05-27T04:30:45;25.20;50.50
63371;DHT22;49504;48.336;14.472;2023-05-27T04:34:11;25.20;50.40
63371;DHT22;49504;48.336;14.472;2023-05-27T04:37:33;25.20;50.10
63371;DHT22;49504;48.336;14.472;2023-05-27T04:40:55;25.20;49.90
63371;DHT22;49504;48.336;14.472;2023-05-27T04:44:39;25.20;49.80
63371;DHT22;49504;48.336;14.472;2023-05-27T04:48:01;25.20;49.70
63371;DHT22;49504;48.336;14.472;2023-05-27T04:51:23;25.20;49.60
63371;DHT22;49504;48.336;14.472;2023-05-27T04:54:44;25.20;50.10
63371;DHT22;49504;48.336;14.472;2023-05-27T04:58:20;25.10;50.20
63371;DHT22;49504;48.336;14.472;2023-05-27T05:01:43;25.20;50.00
63371;DHT22;49504;48.336;14.472;2023-05-27T05:05:10;25.20;50.00
63371;DHT22;49504;48.336;14.472;2023-05-27T05:08:31;25.20;50.10
63371;DHT22;49504;48.336;14.472;2023-05-27T05:11:53;25.10;50.40
63371;DHT22;49504;48.336;14.472;2023-05-27T05:15:15;25.20;50.60
63371;DHT22;49504;48.336;14.472;2023-05-27T05:18:37;25.20;50.70
63371;DHT22;49504;48.336;14.472;2023-05-27T05:21:58;25.20;50.30
63371;DHT22;49504;48.336;14.472;2023-05-27T05:27:57;25.10;49.80
63371;DHT22;49504;48.336;14.472;2023-05-27T05:31:18;25.20;50.10
63371;DHT22;49504;48.336;14.472;2023-05-27T05:34:41;25.10;49.80
63371;DHT22;49504;48.336;14.472;2023-05-27T05:38:04;25.20;49.70
63371;DHT22;49504;48.336;14.472;2023-05-27T05:41:26;25.10;50.00
63371;DHT22;49504;48.336;14.472;2023-05-27T05:44:49;25.10;50.10
63371;DHT22;49504;48.336;14.472;2023-05-27T05:48:11;25.10;50.10
63371;DHT22;49504;48.336;14.472;2023-05-27T05:51:35;25.10;50.10
63371;DHT22;49504;48.336;14.472;2023-05-27T05:54:56;25.10;50.30
63371;DHT22;49504;48.336;14.472;2023-05-27T05:58:17;25.10;50.30
63371;DHT22;49504;48.336;14.472;2023-05-27T06:01:41;25.10;50.30
63371;DHT22;49504;48.336;14.472;2023-05-27T06:05:03;25.10;50.30
63371;DHT22;49504;48.336;14.472;2023-05-27T06:08:25;25.10;50.40
63371;DHT22;49504;48.336;14.472;2023-05-27T06:11:59;25.10;50.40
63371;DHT22;49504;48.336;14.472;2023-05-27T06:15:30;25.10;50.50
63371;DHT22;49504;48.336;14.472;2023-05-27T06:18:53;25.10;50.40
63371;DHT22;49504;48.336;14.472;2023-05-27T06:24:07;25.10;49.90
63371;DHT22;49504;48.336;14.472;2023-05-27T06:27:31;25.10;50.60
63371;DHT22;49504;48.336;14.472;2023-05-27T06:35:28;25.10;50.10
63371;DHT22;49504;48.336;14.472;2023-05-27T06:38:50;25.10;50.60
63371;DHT22;49504;48.336;14.472;2023-05-27T06:42:11;25.10;50.60
63371;DHT22;49504;48.336;14.472;2023-05-27T06:45:42;25.10;50.90
63371;DHT22;49504;48.336;14.472;2023-05-27T06:49:28;25.10;50.20
63371;DHT22;49504;48.336;14.472;2023-05-27T06:52:50;25.10;49.80
63371;DHT22;49504;48.336;14.472;2023-05-27T06:56:23;25.10;50.20
63371;DHT22;49504;48.336;14.472;2023-05-27T07:00:04;25.10;49.80
63371;DHT22;49504;48.336;14.472;2023-05-27T07:03:34;25.10;49.50
63371;DHT22;49504;48.336;14.472;2023-05-27T07:06:58;25.10;49.60
63371;DHT22;49504;48.336;14.472;2023-05-27T07:10:20;25.10;49.60
63371;DHT22;49504;48.336;14.472;2023-05-27T07:13:41;25.10;49.40
63371;DHT22;49504;48.336;14.472;2023-05-27T07:17:03;25.10;49.30
63371;DHT22;49504;48.336;14.472;2023-05-27T07:20:25;25.10;49.70
63371;DHT22;49504;48.336;14.472;2023-05-27T07:23:46;25.10;49.30
63371;DHT22;49504;48.336;14.472;2023-05-27T07:27:20;25.10;49.00
63371;DHT22;49504;48.336;14.472;2023-05-27T07:30:49;25.10;48.80
63371;DHT22;49504;48.336;14.472;2023-05-27T07:34:10;25.10;48.90
63371;DHT22;49504;48.336;14.472;2023-05-27T07:37:31;25.10;48.90
63371;DHT22;49504;48.336;14.472;2023-05-27T07:40:52;25.10;49.00
63371;DHT22;49504;48.336;14.472;2023-05-27T07:44:15;25.10;49.00
63371;DHT22;49504;48.336;14.472;2023-05-27T07:48:17;25.10;48.70
63371;DHT22;49504;48.336;14.472;2023-05-27T07:51:38;25.10;49.10
63371;DHT22;49504;48.336;14.472;2023-05-27T07:55:00;25.10;49.20
63371;DHT22;49504;48.336;14.472;2023-05-27T07:58:21;25.10;49.10
63371;DHT22;49504;48.336;14.472;2023-05-27T08:07:09;25.10;49.10
63371;DHT22;49504;48.336;14.472;2023-05-27T08:10:56;25.10;49.50
63371;DHT22;49504;48.336;14.472;2023-05-27T08:14:38;25.10;49.20
63371;DHT22;49504;48.336;14.472;2023-05-27T08:18:03;25.10;49.10
63371;DHT22;49504;48.336;14.472;2023-05-27T08:21:46;25.10;48.90
63371;DHT22;49504;48.336;14.472;2023-05-27T08:25:27;25.10;49.30
63371;DHT22;49504;48.336;14.472;2023-05-27T08:29:07;25.10;49.10
63371;DHT22;49504;48.336;14.472;2023-05-27T08:32:36;25.10;48.80
63371;DHT22;49504;48.336;14.472;2023-05-27T08:39:14;25.10;48.70
63371;DHT22;49504;48.336;14.472;2023-05-27T08:42:46;25.10;48.90
63371;DHT22;49504;48.336;14.472;2023-05-27T08:46:08;25.10;48.90
63371;DHT22;49504;48.336;14.472;2023-05-27T08:49:30;25.20;49.10
63371;DHT22;49504;48.336;14.472;2023-05-27T08:52:53;25.20;48.70
63371;DHT22;49504;48.336;14.472;2023-05-27T08:56:22;25.20;48.70
63371;DHT22;49504;48.336;14.472;2023-05-27T08:59:45;25.20;48.90
63371;DHT22;49504;48.336;14.472;2023-05-27T09:03:07;25.20;48.80
63371;DHT22;49504;48.336;14.472;2023-05-27T09:06:29;25.20;48.70
63371;DHT22;49504;48.336;14.472;2023-05-27T09:09:57;25.20;49.10
63371;DHT22;49504;48.336;14.472;2023-05-27T09:13:27;25.20;48.30
63371;DHT22;49504;48.336;14.472;2023-05-27T09:16:48;25.20;47.60
63371;DHT22;49504;48.336;14.472;2023-05-27T09:20:10;25.20;47.50
63371;DHT22;49504;48.336;14.472;2023-05-27T09:23:37;25.20;46.80
63371;DHT22;49504;48.336;14.472;2023-05-27T09:26:58;25.20;46.60
63371;DHT22;49504;48.336;14.472;2023-05-27T09:30:21;25.20;46.10
63371;DHT22;49504;48.336;14.472;2023-05-27T09:33:43;25.20;46.10
63371;DHT22;49504;48.336;14.472;2023-05-27T09:37:04;25.20;46.20
63371;DHT22;49504;48.336;14.472;2023-05-27T09:42:27;25.20;46.50
63371;DHT22;49504;48.336;14.472;2023-05-27T09:45:48;25.20;45.80
63371;DHT22;49504;48.336;14.472;2023-05-27T09:49:10;25.20;45.80
63371;DHT22;49504;48.336;14.472;2023-05-27T09:52:35;25.20;45.80
63371;DHT22;49504;48.336;14.472;2023-05-27T09:57:13;25.10;45.80
63371;DHT22;49504;48.336;14.472;2023-05-27T10:00:37;25.20;46.10
63371;DHT22;49504;48.336;14.472;2023-05-27T10:03:59;25.20;46.70
63371;DHT22;49504;48.336;14.472;2023-05-27T10:07:27;25.20;47.30
63371;DHT22;49504;48.336;14.472;2023-05-27T10:11:04;25.20;47.60
63371;DHT22;49504;48.336;14.472;2023-05-27T10:14:31;25.20;47.90
63371;DHT22;49504;48.336;14.472;2023-05-27T10:18:06;25.20;48.00
63371;DHT22;49504;48.336;14.472;2023-05-27T10:21:51;25.20;47.90
63371;DHT22;49504;48.336;14.472;2023-05-27T10:26:01;25.20;47.90
63371;DHT22;49504;48.336;14.472;2023-05-27T10:29:35;25.20;48.80
63371;DHT22;49504;48.336;14.472;2023-05-27T10:32:56;25.30;48.80
63371;DHT22;49504;48.336;14.472;2023-05-27T10:36:22;25.20;48.80
63371;DHT22;49504;48.336;14.472;2023-05-27T10:39:53;25.30;48.90
63371;DHT22;49504;48.336;14.472;2023-05-27T10:43:17;25.20;48.60
63371;DHT22;49504;48.336;14.472;2023-05-27T10:46:40;25.30;48.90
63371;DHT22;49504;48.336;14.472;2023-05-27T10:50:10;25.30;49.20
63371;DHT22;49504;48.336;14.472;2023-05-27T10:53:35;25.30;49.40
63371;DHT22;49504;48.336;14.472;2023-05-27T10:56:57;25.40;49.70
63371;DHT22;49504;48.336;14.472;2023-05-27T11:00:21;25.40;49.60
63371;DHT22;49504;48.336;14.472;2023-05-27T11:03:45;25.40;49.20
63371;DHT22;49504;48.336;14.472;2023-05-27T11:07:07;25.40;49.20
63371;DHT22;49504;48.336;14.472;2023-05-27T11:13:07;25.40;48.60
63371;DHT22;49504;48.336;14.472;2023-05-27T11:16:28;25.40;48.70
63371;DHT22;49504;48.336;14.472;2023-05-27T11:19:49;25.40;48.50
63371;DHT22;49504;48.336;14.472;2023-05-27T11:23:11;25.40;48.20
63371;DHT22;49504;48.336;14.472;2023-05-27T11:28:57;25.40;47.90
63371;DHT22;49504;48.336;14.472;2023-05-27T11:32:20;25.50;48.40
63371;DHT22;49504;48.336;14.472;2023-05-27T11:35:41;25.50;48.40
63371;DHT22;49504;48.336;14.472;2023-05-27T11:41:18;25.50;48.10
63371;DHT22;49504;48.336;14.472;2023-05-27T11:44:50;25.50;48.80
63371;DHT22;49504;48.336;14.472;2023-05-27T11:48:11;25.50;48.90
63371;DHT22;49504;48.336;14.472;2023-05-27T11:51:34;25.50;48.90
63371;DHT22;49504;48.336;14.472;2023-05-27T11:54:55;25.50;49.20
63371;DHT22;49504;48.336;14.472;2023-05-27T11:58:18;25.50;49.00
63371;DHT22;49504;48.336;14.472;2023-05-27T12:05:25;25.50;48.50
63371;DHT22;49504;48.336;14.472;2023-05-27T12:08:46;25.50;49.10
63371;DHT22;49504;48.336;14.472;2023-05-27T12:12:07;25.60;49.20
63371;DHT22;49504;48.336;14.472;2023-05-27T12:15:29;25.60;49.30
63371;DHT22;49504;48.336;14.472;2023-05-27T12:22:55;25.60;48.60
63371;DHT22;49504;48.336;14.472;2023-05-27T12:26:17;25.60;49.30
63371;DHT22;49504;48.336;14.472;2023-05-27T12:29:38;25.60;49.50
63371;DHT22;49504;48.336;14.472;2023-05-27T12:33:01;25.60;49.60
63371;DHT22;49504;48.336;14.472;2023-05-27T12:36:22;25.60;49.70
63371;DHT22;49504;48.336;14.472;2023-05-27T12:39:45;25.60;50.00
63371;DHT22;49504;48.336;14.472;2023-05-27T12:44:43;25.70;49.10
63371;DHT22;49504;48.336;14.472;2023-05-27T12:49:27;25.70;49.30
63371;DHT22;49504;48.336;14.472;2023-05-27T12:52:49;25.70;50.70
63371;DHT22;49504;48.336;14.472;2023-05-27T12:56:10;25.70;50.80
63371;DHT22;49504;48.336;14.472;2023-05-27T12:59:31;25.70;50.80
63371;DHT22;49504;48.336;14.472;2023-05-27T13:02:52;25.80;51.40
63371;DHT22;49504;48.336;14.472;2023-05-27T13:09:06;25.80;50.20
63371;DHT22;49504;48.336;14.472;2023-05-27T13:14:39;25.80;50.60
63371;DHT22;49504;48.336;14.472;2023-05-27T13:18:00;25.80;52.50
63371;DHT22;49504;48.336;14.472;2023-05-27T13:21:22;25.90;52.70
63371;DHT22;49504;48.336;14.472;2023-05-27T13:24:43;25.90;52.90
63371;DHT22;49504;48.336;14.472;2023-05-27T13:28:04;25.90;53.00
63371;DHT22;49504;48.336;14.472;2023-05-27T13:31:28;25.90;53.20
63371;DHT22;49504;48.336;14.472;2023-05-27T13:34:50;26.00;53.10
63371;DHT22;49504;48.336;14.472;2023-05-27T13:38:14;26.00;53.10
63371;DHT22;49504;48.336;14.472;2023-05-27T13:41:35;26.00;53.00
63371;DHT22;49504;48.336;14.472;2023-05-27T13:44:56;26.00;53.40
63371;DHT22;49504;48.336;14.472;2023-05-27T13:50:32;26.00;52.40
63371;DHT22;49504;48.336;14.472;2023-05-27T13:53:53;26.10;56.10
63371;DHT22;49504;48.336;14.472;2023-05-27T13:57:14;26.00;55.80
63371;DHT22;49504;48.336;14.472;2023-05-27T14:00:35;26.00;55.40
63371;DHT22;49504;48.336;14.472;2023-05-27T14:03:56;26.10;54.90
63371;DHT22;49504;48.336;14.472;2023-05-27T14:07:19;26.10;54.50
63371;DHT22;49504;48.336;14.472;2023-05-27T14:10:40;26.10;54.60
63371;DHT22;49504;48.336;14.472;2023-05-27T14:14:01;26.10;54.50
63371;DHT22;49504;48.336;14.472;2023-05-27T14:17:23;26.10;54.90
63371;DHT22;49504;48.336;14.472;2023-05-27T14:20:44;26.10;55.00
63371;DHT22;49504;48.336;14.472;2023-05-27T14:24:06;26.10;55.30
63371;DHT22;49504;48.336;14.472;2023-05-27T14:27:28;26.10;55.80
63371;DHT22;49504;48.336;14.472;2023-05-27T14:30:49;26.10;55.70
63371;DHT22;49504;48.336;14.472;2023-05-27T14:34:10;26.10;55.90
63371;DHT22;49504;48.336;14.472;2023-05-27T14:37:31;26.10;55.30
63371;DHT22;49504;48.336;14.472;2023-05-27T14:40:54;26.10;55.20
63371;DHT22;49504;48.336;14.472;2023-05-27T14:44:15;26.10;54.80
63371;DHT22;49504;48.336;14.472;2023-05-27T14:47:36;26.00;54.40
63371;DHT22;49504;48.336;14.472;2023-05-27T14:50:57;26.10;54.30
63371;DHT22;49504;48.336;14.472;2023-05-27T14:54:42;26.00;53.10
63371;DHT22;49504;48.336;14.472;2023-05-27T14:58:03;26.00;53.70
63371;DHT22;49504;48.336;14.472;2023-05-27T15:01:25;26.10;53.60
63371;DHT22;49504;48.336;14.472;2023-05-27T15:06:27;26.00;52.70
63371;DHT22;49504;48.336;14.472;2023-05-27T15:09:48;26.00;52.80
63371;DHT22;49504;48.336;14.472;2023-05-27T15:13:09;26.00;52.90
63371;DHT22;49504;48.336;14.472;2023-05-27T15:16:31;26.00;52.80
63371;DHT22;49504;48.336;14.472;2023-05-27T15:19:52;26.00;52.70
63371;DHT22;49504;48.336;14.472;2023-05-27T15:25:44;26.00;52.20
63371;DHT22;49504;48.336;14.472;2023-05-27T15:29:05;26.00;52.80
63371;DHT22;49504;48.336;14.472;2023-05-27T15:32:27;26.00;52.90
63371;DHT22;49504;48.336;14.472;2023-05-27T15:35:48;26.00;52.90
63371;DHT22;49504;48.336;14.472;2023-05-27T15:41:20;26.00;52.20
63371;DHT22;49504;48.336;14.472;2023-05-27T15:44:41;26.00;52.90
63371;DHT22;49504;48.336;14.472;2023-05-27T15:48:02;26.00;52.70
63371;DHT22;49504;48.336;14.472;2023-05-27T15:51:23;25.90;52.80
63371;DHT22;49504;48.336;14.472;2023-05-27T15:54:44;25.90;52.80
63371;DHT22;49504;48.336;14.472;2023-05-27T15:58:07;26.00;52.80
63371;DHT22;49504;48.336;14.472;2023-05-27T16:01:28;25.90;52.70
63371;DHT22;49504;48.336;14.472;2023-05-27T16:04:49;25.90;52.70
63371;DHT22;49504;48.336;14.472;2023-05-27T16:08:10;25.90;52.70
63371;DHT22;49504;48.336;14.472;2023-05-27T16:11:31;25.90;52.80
63371;DHT22;49504;48.336;14.472;2023-05-27T16:14:54;25.90;52.80
63371;DHT22;49504;48.336;14.472;2023-05-27T16:18:16;25.90;52.90
63371;DHT22;49504;48.336;14.472;2023-05-27T16:21:37;25.90;52.90
63371;DHT22;49504;48.336;14.472;2023-05-27T16:24:59;25.90;53.00
63371;DHT22;49504;48.336;14.472;2023-05-27T16:28:20;25.90;53.00
63371;DHT22;49504;48.336;14.472;2023-05-27T16:31:42;25.90;52.90
63371;DHT22;49504;48.336;14.472;2023-05-27T16:35:57;25.90;52.20
63371;DHT22;49504;48.336;14.472;2023-05-27T16:40:51;25.90;52.20
63371;DHT22;49504;48.336;14.472;2023-05-27T16:44:12;25.90;53.00
63371;DHT22;49504;48.336;14.472;2023-05-27T16:47:33;25.90;53.00
63371;DHT22;49504;48.336;14.472;2023-05-27T16:52:08;25.90;52.30
63371;DHT22;49504;48.336;14.472;2023-05-27T16:55:30;25.80;52.90
63371;DHT22;49504;48.336;14.472;2023-05-27T16:58:51;25.90;53.00
63371;DHT22;49504;48.336;14.472;2023-05-27T17:02:12;25.80;52.60
63371;DHT22;49504;48.336;14.472;2023-05-27T17:07:52;25.80;51.90
63371;DHT22;49504;48.336;14.472;2023-05-27T17:11:13;25.80;52.10
63371;DHT22;49504;48.336;14.472;2023-05-27T17:15:13;25.80;51.70
63371;DHT22;49504;48.336;14.472;2023-05-27T17:18:35;25.80;52.30
63371;DHT22;49504;48.336;14.472;2023-05-27T17:21:56;25.80;52.30
63371;DHT22;49504;48.336;14.472;2023-05-27T17:25:17;25.80;52.40
63371;DHT22;49504;48.336;14.472;2023-05-27T17:28:38;25.80;52.40
63371;DHT22;49504;48.336;14.472;2023-05-27T17:32:01;25.80;52.40
63371;DHT22;49504;48.336;14.472;2023-05-27T17:35:22;25.80;52.30
63371;DHT22;49504;48.336;14.472;2023-05-27T17:38:43;25.80;52.30
63371;DHT22;49504;48.336;14.472;2023-05-27T17:42:04;25.80;52.30
63371;DHT22;49504;48.336;14.472;2023-05-27T17:45:26;25.80;52.30
63371;DHT22;49504;48.336;14.472;2023-05-27T17:48:48;25.80;52.30
63371;DHT22;49504;48.336;14.472;2023-05-27T17:53:25;25.70;51.70
63371;DHT22;49504;48.336;14.472;2023-05-27T17:56:46;25.80;52.30
63371;DHT22;49504;48.336;14.472;2023-05-27T18:00:08;25.80;52.30
63371;DHT22;49504;48.336;14.472;2023-05-27T18:03:30;25.80;52.30
63371;DHT22;49504;48.336;14.472;2023-05-27T18:06:51;25.70;52.20
63371;DHT22;49504;48.336;14.472;2023-05-27T18:10:13;25.80;53.00
63371;DHT22;49504;48.336;14.472;2023-05-27T18:13:34;25.70;52.20
63371;DHT22;49504;48.336;14.472;2023-05-27T18:16:56;25.70;52.20
63371;DHT22;49504;48.336;14.472;2023-05-27T18:20:17;25.70;52.30
63371;DHT22;49504;48.336;14.472;2023-05-27T18:23:38;25.70;52.20
63371;DHT22;49504;48.336;14.472;2023-05-27T18:27:00;25.70;52.20
63371;DHT22;49504;48.336;14.472;2023-05-27T18:30:21;25.70;52.20
63371;DHT22;49504;48.336;14.472;2023-05-27T18:33:43;25.70;52.20
63371;DHT22;49504;48.336;14.472;2023-05-27T18:37:04;25.70;52.30
63371;DHT22;49504;48.336;14.472;2023-05-27T18:40:25;25.70;52.30
63371;DHT22;49504;48.336;14.472;2023-05-27T18:43:48;25.70;52.30
63371;DHT22;49504;48.336;14.472;2023-05-27T18:47:09;25.70;52.30
63371;DHT22;49504;48.336;14.472;2023-05-27T18:50:30;25.70;52.40
63371;DHT22;49504;48.336;14.472;2023-05-27T18:53:52;25.70;52.40
63371;DHT22;49504;48.336;14.472;2023-05-27T18:57:13;25.70;52.40
63371;DHT22;49504;48.336;14.472;2023-05-27T19:00:36;25.70;52.40
63371;DHT22;49504;48.336;14.472;2023-05-27T19:03:57;25.70;52.40
63371;DHT22;49504;48.336;14.472;2023-05-27T19:07:18;25.70;52.50
63371;DHT22;49504;48.336;14.472;2023-05-27T19:10:39;25.70;52.40
63371;DHT22;49504;48.336;14.472;2023-05-27T19:14:00;25.70;52.40
63371;DHT22;49504;48.336;14.472;2023-05-27T19:17:23;25.70;52.40
63371;DHT22;49504;48.336;14.472;2023-05-27T19:20:44;25.70;52.50
63371;DHT22;49504;48.336;14.472;2023-05-27T19:24:05;25.70;52.50
63371;DHT22;49504;48.336;14.472;2023-05-27T19:29:30;25.70;51.90
63371;DHT22;49504;48.336;14.472;2023-05-27T19:32:51;25.70;52.60
63371;DHT22;49504;48.336;14.472;2023-05-27T19:36:12;25.70;52.50
63371;DHT22;49504;48.336;14.472;2023-05-27T19:39:34;25.70;52.80
63371;DHT22;49504;48.336;14.472;2023-05-27T19:43:27;25.70;52.00
63371;DHT22;49504;48.336;14.472;2023-05-27T19:46:48;25.70;52.60
63371;DHT22;49504;48.336;14.472;2023-05-27T19:50:09;25.70;52.60
63371;DHT22;49504;48.336;14.472;2023-05-27T19:53:31;25.70;52.60
63371;DHT22;49504;48.336;14.472;2023-05-27T19:56:52;25.70;52.70
63371;DHT22;49504;48.336;14.472;2023-05-27T20:00:15;25.70;52.70
63371;DHT22;49504;48.336;14.472;2023-05-27T20:03:36;25.70;52.60
63371;DHT22;49504;48.336;14.472;2023-05-27T20:06:58;25.70;52.60
63371;DHT22;49504;48.336;14.472;2023-05-27T20:10:19;25.70;52.60
63371;DHT22;49504;48.336;14.472;2023-05-27T20:13:41;25.70;52.60
63371;DHT22;49504;48.336;14.472;2023-05-27T20:17:03;25.60;52.50
63371;DHT22;49504;48.336;14.472;2023-05-27T20:20:24;25.70;52.50
63371;DHT22;49504;48.336;14.472;2023-05-27T20:23:46;25.70;52.50
63371;DHT22;49504;48.336;14.472;2023-05-27T20:27:07;25.60;52.50
63371;DHT22;49504;48.336;14.472;2023-05-27T20:30:28;25.60;52.50
63371;DHT22;49504;48.336;14.472;2023-05-27T20:33:51;25.60;52.50
63371;DHT22;49504;48.336;14.472;2023-05-27T20:37:13;25.70;52.60
63371;DHT22;49504;48.336;14.472;2023-05-27T20:40:35;25.70;52.60
63371;DHT22;49504;48.336;14.472;2023-05-27T20:43:56;25.60;52.50
63371;DHT22;49504;48.336;14.472;2023-05-27T20:47:17;25.60;52.40
63371;DHT22;49504;48.336;14.472;2023-05-27T20:50:39;25.60;52.30
63371;DHT22;49504;48.336;14.472;2023-05-27T20:54:01;25.60;52.20
63371;DHT22;49504;48.336;14.472;2023-05-27T20:57:22;25.60;52.20
63371;DHT22;49504;48.336;14.472;2023-05-27T21:00:43;25.60;52.00
63371;DHT22;49504;48.336;14.472;2023-05-27T21:04:04;25.60;51.90
63371;DHT22;49504;48.336;14.472;2023-05-27T21:07:26;25.60;51.60
63371;DHT22;49504;48.336;14.472;2023-05-27T21:10:48;25.60;51.40
63371;DHT22;49504;48.336;14.472;2023-05-27T21:14:09;25.60;51.10
63371;DHT22;49504;48.336;14.472;2023-05-27T21:17:30;25.50;51.10
63371;DHT22;49504;48.336;14.472;2023-05-27T21:20:51;25.60;51.40
63371;DHT22;49504;48.336;14.472;2023-05-27T21:24:13;25.60;51.90
63371;DHT22;49504;48.336;14.472;2023-05-27T21:27:35;25.60;51.00
63371;DHT22;49504;48.336;14.472;2023-05-27T21:30:56;25.60;50.90
63371;DHT22;49504;48.336;14.472;2023-05-27T21:34:17;25.50;50.80
63371;DHT22;49504;48.336;14.472;2023-05-27T21:37:52;25.50;50.30
63371;DHT22;49504;48.336;14.472;2023-05-27T21:41:13;25.60;51.40
63371;DHT22;49504;48.336;14.472;2023-05-27T21:44:34;25.50;50.70
63371;DHT22;49504;48.336;14.472;2023-05-27T21:47:55;25.50;50.60
63371;DHT22;49504;48.336;14.472;2023-05-27T21:51:16;25.50;50.50
63371;DHT22;49504;48.336;14.472;2023-05-27T21:54:39;25.50;50.50
63371;DHT22;49504;48.336;14.472;2023-05-27T21:59:18;25.50;50.30
63371;DHT22;49504;48.336;14.472;2023-05-27T22:02:39;25.50;50.60
63371;DHT22;49504;48.336;14.472;2023-05-27T22:06:01;25.50;50.50
63371;DHT22;49504;48.336;14.472;2023-05-27T22:09:22;25.50;50.50
63371;DHT22;49504;48.336;14.472;2023-05-27T22:12:43;25.50;50.50